sensor_id;sensor_type;location;lat;lon;timestamp;temperature;humidity
837;DHT22;400;53.550;9.932;2024-03-17T00:00:11;7.10;1.00
837;DHT22;400;53.550;9.932;2024-03-17T00:02:41;7.10;1.00
837;DHT22;400;53.550;9.932;2024-03-17T00:05:08;7.10;1.00
837;DHT22;400;53.550;9.932;2024-03-17T00:07:35;7.20;1.00
837;DHT22;400;53.550;9.932;2024-03-17T00:10:02;7.30;1.00
837;DHT22;400;53.550;9.932;2024-03-17T00:12:28;7.40;1.00
837;DHT22;400;53.550;9.932;2024-03-17T00:14:55;7.40;1.00
837;DHT22;400;53.550;9.932;2024-03-17T00:17:21;7.40;1.00
837;DHT22;400;53.550;9.932;2024-03-17T00:19:49;7.40;1.00
837;DHT22;400;53.550;9.932;2024-03-17T00:22:15;7.30;1.00
837;DHT22;400;53.550;9.932;2024-03-17T00:24:43;7.30;1.00
837;DHT22;400;53.550;9.932;2024-03-17T00:27:10;7.20;1.00
837;DHT22;400;53.550;9.932;2024-03-17T00:29:37;7.20;1.00
837;DHT22;400;53.550;9.932;2024-03-17T00:32:04;7.20;1.00
837;DHT22;400;53.550;9.932;2024-03-17T00:34:38;7.30;1.00
837;DHT22;400;53.550;9.932;2024-03-17T00:37:07;7.30;1.00
837;DHT22;400;53.550;9.932;2024-03-17T00:39:34;7.30;1.00
837;DHT22;400;53.550;9.932;2024-03-17T00:42:02;7.20;1.00
837;DHT22;400;53.550;9.932;2024-03-17T00:44:34;7.00;1.00
837;DHT22;400;53.550;9.932;2024-03-17T00:47:03;6.90;1.00
837;DHT22;400;53.550;9.932;2024-03-17T00:49:29;6.90;1.00
837;DHT22;400;53.550;9.932;2024-03-17T00:51:55;7.00;1.00
837;DHT22;400;53.550;9.932;2024-03-17T00:54:23;7.10;1.00
837;DHT22;400;53.550;9.932;2024-03-17T00:56:50;7.00;1.00
837;DHT22;400;53.550;9.932;2024-03-17T00:59:19;6.90;1.00
837;DHT22;400;53.550;9.932;2024-03-17T01:01:47;6.90;1.00
837;DHT22;400;53.550;9.932;2024-03-17T01:04:16;6.90;1.00
837;DHT22;400;53.550;9.932;2024-03-17T01:06:42;6.90;1.00
837;DHT22;400;53.550;9.932;2024-03-17T01:09:09;7.00;1.00
837;DHT22;400;53.550;9.932;2024-03-17T01:11:37;7.00;1.00
837;DHT22;400;53.550;9.932;2024-03-17T01:14:04;7.10;1.00
837;DHT22;400;53.550;9.932;2024-03-17T01:16:30;7.00;1.00
837;DHT22;400;53.550;9.932;2024-03-17T01:18:57;6.90;1.00
837;DHT22;400;53.550;9.932;2024-03-17T01:21:24;6.90;1.00
837;DHT22;400;53.550;9.932;2024-03-17T01:23:50;6.90;1.00
837;DHT22;400;53.550;9.932;2024-03-17T01:26:17;6.80;1.00
837;DHT22;400;53.550;9.932;2024-03-17T01:28:45;6.80;1.00
837;DHT22;400;53.550;9.932;2024-03-17T01:31:11;6.90;1.00
837;DHT22;400;53.550;9.932;2024-03-17T01:33:37;6.90;1.00
837;DHT22;400;53.550;9.932;2024-03-17T01:36:04;6.90;1.00
837;DHT22;400;53.550;9.932;2024-03-17T01:38:30;7.00;1.00
837;DHT22;400;53.550;9.932;2024-03-17T01:40:58;7.00;1.00
837;DHT22;400;53.550;9.932;2024-03-17T01:43:26;7.10;1.00
837;DHT22;400;53.550;9.932;2024-03-17T01:45:53;7.10;1.00
837;DHT22;400;53.550;9.932;2024-03-17T01:48:20;7.10;1.00
837;DHT22;400;53.550;9.932;2024-03-17T01:50:48;7.10;1.00
837;DHT22;400;53.550;9.932;2024-03-17T01:53:15;7.00;1.00
837;DHT22;400;53.550;9.932;2024-03-17T01:55:43;7.10;1.00
837;DHT22;400;53.550;9.932;2024-03-17T01:58:11;7.10;1.00
837;DHT22;400;53.550;9.932;2024-03-17T02:00:38;7.20;1.00
837;DHT22;400;53.550;9.932;2024-03-17T02:03:06;7.10;1.00
837;DHT22;400;53.550;9.932;2024-03-17T02:05:34;7.10;1.00
837;DHT22;400;53.550;9.932;2024-03-17T02:08:03;7.10;1.00
837;DHT22;400;53.550;9.932;2024-03-17T02:10:29;6.90;1.00
837;DHT22;400;53.550;9.932;2024-03-17T02:12:56;7.00;1.00
837;DHT22;400;53.550;9.932;2024-03-17T02:15:22;7.10;1.00
837;DHT22;400;53.550;9.932;2024-03-17T02:17:49;7.20;1.00
837;DHT22;400;53.550;9.932;2024-03-17T02:20:16;7.30;1.00
837;DHT22;400;53.550;9.932;2024-03-17T02:22:44;7.30;1.00
837;DHT22;400;53.550;9.932;2024-03-17T02:25:10;7.30;1.00
837;DHT22;400;53.550;9.932;2024-03-17T02:27:37;7.30;1.00
837;DHT22;400;53.550;9.932;2024-03-17T02:30:04;7.30;1.00
837;DHT22;400;53.550;9.932;2024-03-17T02:32:33;7.30;1.00
837;DHT22;400;53.550;9.932;2024-03-17T02:35:02;7.30;1.00
837;DHT22;400;53.550;9.932;2024-03-17T02:37:30;7.30;1.00
837;DHT22;400;53.550;9.932;2024-03-17T02:39:57;7.30;1.00
837;DHT22;400;53.550;9.932;2024-03-17T02:42:24;7.30;1.00
837;DHT22;400;53.550;9.932;2024-03-17T02:44:51;7.30;1.00
837;DHT22;400;53.550;9.932;2024-03-17T02:47:18;7.30;1.00
837;DHT22;400;53.550;9.932;2024-03-17T02:49:45;7.30;1.00
837;DHT22;400;53.550;9.932;2024-03-17T02:52:15;7.20;1.00
837;DHT22;400;53.550;9.932;2024-03-17T02:54:42;7.20;1.00
837;DHT22;400;53.550;9.932;2024-03-17T02:57:12;7.10;1.00
837;DHT22;400;53.550;9.932;2024-03-17T02:59:39;7.00;1.00
837;DHT22;400;53.550;9.932;2024-03-17T03:02:06;7.00;1.00
837;DHT22;400;53.550;9.932;2024-03-17T03:04:33;7.00;1.00
837;DHT22;400;53.550;9.932;2024-03-17T03:07:00;6.90;1.00
837;DHT22;400;53.550;9.932;2024-03-17T03:09:27;6.90;1.00
837;DHT22;400;53.550;9.932;2024-03-17T03:11:57;6.90;1.00
837;DHT22;400;53.550;9.932;2024-03-17T03:14:26;7.00;1.00
837;DHT22;400;53.550;9.932;2024-03-17T03:16:53;6.90;1.00
837;DHT22;400;53.550;9.932;2024-03-17T03:19:20;6.80;1.00
837;DHT22;400;53.550;9.932;2024-03-17T03:21:47;6.90;1.00
837;DHT22;400;53.550;9.932;2024-03-17T03:24:14;6.90;1.00
837;DHT22;400;53.550;9.932;2024-03-17T03:26:41;7.00;1.00
837;DHT22;400;53.550;9.932;2024-03-17T03:29:08;7.00;1.00
837;DHT22;400;53.550;9.932;2024-03-17T03:31:37;7.00;1.00
837;DHT22;400;53.550;9.932;2024-03-17T03:34:05;6.90;1.00
837;DHT22;400;53.550;9.932;2024-03-17T03:36:33;7.00;1.00
837;DHT22;400;53.550;9.932;2024-03-17T03:39:01;7.00;1.00
837;DHT22;400;53.550;9.932;2024-03-17T03:41:30;7.00;1.00
837;DHT22;400;53.550;9.932;2024-03-17T03:43:58;7.00;1.00
837;DHT22;400;53.550;9.932;2024-03-17T03:46:25;7.00;1.00
837;DHT22;400;53.550;9.932;2024-03-17T03:48:53;7.00;1.00
837;DHT22;400;53.550;9.932;2024-03-17T03:51:22;6.90;1.00
837;DHT22;400;53.550;9.932;2024-03-17T03:53:50;6.80;1.00
837;DHT22;400;53.550;9.932;2024-03-17T03:56:17;6.90;1.00
837;DHT22;400;53.550;9.932;2024-03-17T03:58:46;6.90;1.00
837;DHT22;400;53.550;9.932;2024-03-17T04:01:13;6.90;1.00
837;DHT22;400;53.550;9.932;2024-03-17T04:03:46;6.90;1.00
837;DHT22;400;53.550;9.932;2024-03-17T04:06:15;6.90;1.00
837;DHT22;400;53.550;9.932;2024-03-17T04:08:42;6.90;1.00
837;DHT22;400;53.550;9.932;2024-03-17T04:11:09;6.90;1.00
837;DHT22;400;53.550;9.932;2024-03-17T04:13:36;7.00;1.00
837;DHT22;400;53.550;9.932;2024-03-17T04:16:04;7.00;1.00
837;DHT22;400;53.550;9.932;2024-03-17T04:18:32;6.90;1.00
837;DHT22;400;53.550;9.932;2024-03-17T04:21:02;7.00;1.00
837;DHT22;400;53.550;9.932;2024-03-17T04:23:31;7.00;1.00
837;DHT22;400;53.550;9.932;2024-03-17T04:25:59;7.00;1.00
837;DHT22;400;53.550;9.932;2024-03-17T04:28:26;7.00;1.00
837;DHT22;400;53.550;9.932;2024-03-17T04:31:01;7.00;1.00
837;DHT22;400;53.550;9.932;2024-03-17T04:33:29;7.00;1.00
837;DHT22;400;53.550;9.932;2024-03-17T04:35:57;6.90;1.00
837;DHT22;400;53.550;9.932;2024-03-17T04:38:23;6.90;1.00
837;DHT22;400;53.550;9.932;2024-03-17T04:40:56;6.80;1.00
837;DHT22;400;53.550;9.932;2024-03-17T04:43:32;6.80;1.00
837;DHT22;400;53.550;9.932;2024-03-17T04:46:05;6.70;1.00
837;DHT22;400;53.550;9.932;2024-03-17T04:48:41;6.70;1.00
837;DHT22;400;53.550;9.932;2024-03-17T04:51:15;6.80;1.00
837;DHT22;400;53.550;9.932;2024-03-17T04:53:42;6.80;1.00
837;DHT22;400;53.550;9.932;2024-03-17T04:56:10;6.80;1.00
837;DHT22;400;53.550;9.932;2024-03-17T04:58:37;6.80;1.00
837;DHT22;400;53.550;9.932;2024-03-17T05:01:05;6.70;1.00
837;DHT22;400;53.550;9.932;2024-03-17T05:03:32;6.60;1.00
837;DHT22;400;53.550;9.932;2024-03-17T05:05:59;6.60;1.00
837;DHT22;400;53.550;9.932;2024-03-17T05:08:30;6.70;1.00
837;DHT22;400;53.550;9.932;2024-03-17T05:10:58;6.70;1.00
837;DHT22;400;53.550;9.932;2024-03-17T05:13:27;6.80;1.00
837;DHT22;400;53.550;9.932;2024-03-17T05:15:54;6.80;1.00
837;DHT22;400;53.550;9.932;2024-03-17T05:18:21;6.90;1.00
837;DHT22;400;53.550;9.932;2024-03-17T05:20:57;6.90;1.00
837;DHT22;400;53.550;9.932;2024-03-17T05:23:25;6.90;1.00
837;DHT22;400;53.550;9.932;2024-03-17T05:25:53;6.90;1.00
837;DHT22;400;53.550;9.932;2024-03-17T05:28:20;6.90;1.00
837;DHT22;400;53.550;9.932;2024-03-17T05:30:49;6.90;1.00
837;DHT22;400;53.550;9.932;2024-03-17T05:33:18;6.90;1.00
837;DHT22;400;53.550;9.932;2024-03-17T05:35:50;6.90;1.00
837;DHT22;400;53.550;9.932;2024-03-17T05:38:18;6.80;1.00
837;DHT22;400;53.550;9.932;2024-03-17T05:40:53;6.80;1.00
837;DHT22;400;53.550;9.932;2024-03-17T05:43:20;6.80;1.00
837;DHT22;400;53.550;9.932;2024-03-17T05:45:52;6.80;1.00
837;DHT22;400;53.550;9.932;2024-03-17T05:48:19;6.80;1.00
837;DHT22;400;53.550;9.932;2024-03-17T05:50:46;6.80;1.00
837;DHT22;400;53.550;9.932;2024-03-17T05:53:13;6.80;1.00
837;DHT22;400;53.550;9.932;2024-03-17T05:55:41;6.80;1.00
837;DHT22;400;53.550;9.932;2024-03-17T05:58:08;6.80;1.00
837;DHT22;400;53.550;9.932;2024-03-17T06:00:36;6.70;1.00
837;DHT22;400;53.550;9.932;2024-03-17T06:03:05;6.70;1.00
837;DHT22;400;53.550;9.932;2024-03-17T06:05:33;6.70;1.00
837;DHT22;400;53.550;9.932;2024-03-17T06:08:00;6.60;1.00
837;DHT22;400;53.550;9.932;2024-03-17T06:10:28;6.70;1.00
837;DHT22;400;53.550;9.932;2024-03-17T06:12:55;6.70;1.00
837;DHT22;400;53.550;9.932;2024-03-17T06:15:23;6.70;1.00
837;DHT22;400;53.550;9.932;2024-03-17T06:17:50;6.70;1.00
837;DHT22;400;53.550;9.932;2024-03-17T06:20:19;6.70;1.00
837;DHT22;400;53.550;9.932;2024-03-17T06:22:46;6.70;1.00
837;DHT22;400;53.550;9.932;2024-03-17T06:25:13;6.70;1.00
837;DHT22;400;53.550;9.932;2024-03-17T06:27:40;6.70;1.00
837;DHT22;400;53.550;9.932;2024-03-17T06:30:10;6.70;1.00
837;DHT22;400;53.550;9.932;2024-03-17T06:32:39;6.70;1.00
837;DHT22;400;53.550;9.932;2024-03-17T06:35:07;6.70;1.00
837;DHT22;400;53.550;9.932;2024-03-17T06:37:35;6.70;1.00
837;DHT22;400;53.550;9.932;2024-03-17T06:40:03;6.60;1.00
837;DHT22;400;53.550;9.932;2024-03-17T06:42:30;6.60;1.00
837;DHT22;400;53.550;9.932;2024-03-17T06:44:57;6.60;1.00
837;DHT22;400;53.550;9.932;2024-03-17T06:47:24;6.70;1.00
837;DHT22;400;53.550;9.932;2024-03-17T06:49:51;6.70;1.00
837;DHT22;400;53.550;9.932;2024-03-17T06:52:18;6.80;1.00
837;DHT22;400;53.550;9.932;2024-03-17T06:54:48;6.80;1.00
837;DHT22;400;53.550;9.932;2024-03-17T06:57:16;6.80;1.00
837;DHT22;400;53.550;9.932;2024-03-17T06:59:44;6.80;1.00
837;DHT22;400;53.550;9.932;2024-03-17T07:02:11;6.90;1.00
837;DHT22;400;53.550;9.932;2024-03-17T07:04:43;6.90;1.00
837;DHT22;400;53.550;9.932;2024-03-17T07:07:12;6.90;1.00
837;DHT22;400;53.550;9.932;2024-03-17T07:09:42;6.90;1.00
837;DHT22;400;53.550;9.932;2024-03-17T07:12:13;6.90;1.00
837;DHT22;400;53.550;9.932;2024-03-17T07:14:40;7.00;1.00
837;DHT22;400;53.550;9.932;2024-03-17T07:17:07;7.00;1.00
837;DHT22;400;53.550;9.932;2024-03-17T07:19:34;6.90;1.00
837;DHT22;400;53.550;9.932;2024-03-17T07:22:01;6.90;1.00
837;DHT22;400;53.550;9.932;2024-03-17T07:24:29;7.00;1.00
837;DHT22;400;53.550;9.932;2024-03-17T07:26:56;7.00;1.00
837;DHT22;400;53.550;9.932;2024-03-17T07:29:24;7.10;1.00
837;DHT22;400;53.550;9.932;2024-03-17T07:31:51;7.10;1.00
837;DHT22;400;53.550;9.932;2024-03-17T07:34:18;7.10;1.00
837;DHT22;400;53.550;9.932;2024-03-17T07:36:45;7.20;1.00
837;DHT22;400;53.550;9.932;2024-03-17T07:39:15;7.20;1.00
837;DHT22;400;53.550;9.932;2024-03-17T07:41:44;7.20;1.00
837;DHT22;400;53.550;9.932;2024-03-17T07:44:18;7.20;1.00
837;DHT22;400;53.550;9.932;2024-03-17T07:46:45;7.20;1.00
837;DHT22;400;53.550;9.932;2024-03-17T07:49:12;7.20;1.00
837;DHT22;400;53.550;9.932;2024-03-17T07:51:40;7.20;1.00
837;DHT22;400;53.550;9.932;2024-03-17T07:54:07;7.30;1.00
837;DHT22;400;53.550;9.932;2024-03-17T07:56:34;7.30;1.00
837;DHT22;400;53.550;9.932;2024-03-17T07:59:01;7.30;1.00
837;DHT22;400;53.550;9.932;2024-03-17T08:01:36;7.30;1.00
837;DHT22;400;53.550;9.932;2024-03-17T08:04:03;7.30;1.00
837;DHT22;400;53.550;9.932;2024-03-17T08:06:30;7.30;1.00
837;DHT22;400;53.550;9.932;2024-03-17T08:08:57;7.40;1.00
837;DHT22;400;53.550;9.932;2024-03-17T08:11:24;7.40;1.00
837;DHT22;400;53.550;9.932;2024-03-17T08:13:51;7.40;1.00
837;DHT22;400;53.550;9.932;2024-03-17T08:16:19;7.40;1.00
837;DHT22;400;53.550;9.932;2024-03-17T08:18:48;7.40;1.00
837;DHT22;400;53.550;9.932;2024-03-17T08:21:17;7.40;1.00
837;DHT22;400;53.550;9.932;2024-03-17T08:23:46;7.40;1.00
837;DHT22;400;53.550;9.932;2024-03-17T08:26:14;7.50;1.00
837;DHT22;400;53.550;9.932;2024-03-17T08:28:40;7.50;1.00
837;DHT22;400;53.550;9.932;2024-03-17T08:31:07;7.50;1.00
837;DHT22;400;53.550;9.932;2024-03-17T08:33:34;7.60;1.00
837;DHT22;400;53.550;9.932;2024-03-17T08:36:06;7.60;1.00
837;DHT22;400;53.550;9.932;2024-03-17T08:38:36;7.60;1.00
837;DHT22;400;53.550;9.932;2024-03-17T08:41:06;7.60;1.00
837;DHT22;400;53.550;9.932;2024-03-17T08:43:34;7.70;1.00
837;DHT22;400;53.550;9.932;2024-03-17T08:46:03;7.80;1.00
837;DHT22;400;53.550;9.932;2024-03-17T08:48:31;7.80;1.00
837;DHT22;400;53.550;9.932;2024-03-17T08:51:08;7.80;1.00
837;DHT22;400;53.550;9.932;2024-03-17T08:53:36;7.90;1.00
837;DHT22;400;53.550;9.932;2024-03-17T08:56:07;7.90;1.00
837;DHT22;400;53.550;9.932;2024-03-17T08:58:34;8.00;1.00
837;DHT22;400;53.550;9.932;2024-03-17T09:01:05;8.00;1.00
837;DHT22;400;53.550;9.932;2024-03-17T09:03:34;8.00;1.00
837;DHT22;400;53.550;9.932;2024-03-17T09:06:13;8.00;1.00
837;DHT22;400;53.550;9.932;2024-03-17T09:08:47;8.10;1.00
837;DHT22;400;53.550;9.932;2024-03-17T09:11:20;8.20;1.00
837;DHT22;400;53.550;9.932;2024-03-17T09:13:53;8.20;1.00
837;DHT22;400;53.550;9.932;2024-03-17T09:16:20;8.30;1.00
837;DHT22;400;53.550;9.932;2024-03-17T09:18:49;8.30;1.00
837;DHT22;400;53.550;9.932;2024-03-17T09:21:17;8.30;1.00
837;DHT22;400;53.550;9.932;2024-03-17T09:23:46;8.30;1.00
837;DHT22;400;53.550;9.932;2024-03-17T09:26:14;8.40;1.00
837;DHT22;400;53.550;9.932;2024-03-17T09:28:44;8.30;1.00
837;DHT22;400;53.550;9.932;2024-03-17T09:31:19;8.30;1.00
837;DHT22;400;53.550;9.932;2024-03-17T09:33:52;8.40;1.00
837;DHT22;400;53.550;9.932;2024-03-17T09:38:58;8.50;1.00
837;DHT22;400;53.550;9.932;2024-03-17T09:41:26;8.60;1.00
837;DHT22;400;53.550;9.932;2024-03-17T09:43:59;8.60;1.00
837;DHT22;400;53.550;9.932;2024-03-17T09:46:41;8.60;1.00
837;DHT22;400;53.550;9.932;2024-03-17T09:49:15;8.60;1.00
837;DHT22;400;53.550;9.932;2024-03-17T09:51:44;8.60;1.00
837;DHT22;400;53.550;9.932;2024-03-17T09:54:19;8.60;1.00
837;DHT22;400;53.550;9.932;2024-03-17T09:56:46;8.70;1.00
837;DHT22;400;53.550;9.932;2024-03-17T09:59:13;8.70;1.00
837;DHT22;400;53.550;9.932;2024-03-17T10:01:40;8.70;1.00
837;DHT22;400;53.550;9.932;2024-03-17T10:04:14;8.70;1.00
837;DHT22;400;53.550;9.932;2024-03-17T10:06:57;8.70;1.00
837;DHT22;400;53.550;9.932;2024-03-17T10:09:29;8.80;1.00
837;DHT22;400;53.550;9.932;2024-03-17T10:12:01;8.90;1.00
837;DHT22;400;53.550;9.932;2024-03-17T10:14:33;9.00;1.00
837;DHT22;400;53.550;9.932;2024-03-17T10:17:03;9.00;1.00
837;DHT22;400;53.550;9.932;2024-03-17T10:19:35;9.00;1.00
837;DHT22;400;53.550;9.932;2024-03-17T10:22:12;9.10;1.00
837;DHT22;400;53.550;9.932;2024-03-17T10:24:40;9.20;1.00
837;DHT22;400;53.550;9.932;2024-03-17T10:27:12;9.30;1.00
837;DHT22;400;53.550;9.932;2024-03-17T10:29:43;9.30;1.00
837;DHT22;400;53.550;9.932;2024-03-17T10:32:14;9.30;1.00
837;DHT22;400;53.550;9.932;2024-03-17T10:34:43;9.30;1.00
837;DHT22;400;53.550;9.932;2024-03-17T10:37:13;9.30;1.00
837;DHT22;400;53.550;9.932;2024-03-17T10:39:43;9.30;1.00
837;DHT22;400;53.550;9.932;2024-03-17T10:42:14;9.30;1.00
837;DHT22;400;53.550;9.932;2024-03-17T10:44:43;9.30;1.00
837;DHT22;400;53.550;9.932;2024-03-17T10:47:21;9.30;1.00
837;DHT22;400;53.550;9.932;2024-03-17T10:49:53;9.30;1.00
837;DHT22;400;53.550;9.932;2024-03-17T10:52:35;9.30;1.00
837;DHT22;400;53.550;9.932;2024-03-17T10:55:21;9.40;1.00
837;DHT22;400;53.550;9.932;2024-03-17T10:57:50;9.50;1.00
837;DHT22;400;53.550;9.932;2024-03-17T11:00:18;9.50;1.00
837;DHT22;400;53.550;9.932;2024-03-17T11:02:51;9.60;1.00
837;DHT22;400;53.550;9.932;2024-03-17T11:05:24;9.60;1.00
837;DHT22;400;53.550;9.932;2024-03-17T11:07:56;9.60;1.00
837;DHT22;400;53.550;9.932;2024-03-17T11:10:34;9.70;1.00
837;DHT22;400;53.550;9.932;2024-03-17T11:13:04;9.80;1.00
837;DHT22;400;53.550;9.932;2024-03-17T11:15:39;9.90;1.00
837;DHT22;400;53.550;9.932;2024-03-17T11:18:33;10.00;1.00
837;DHT22;400;53.550;9.932;2024-03-17T11:21:02;10.00;1.00
837;DHT22;400;53.550;9.932;2024-03-17T11:23:33;10.10;1.00
837;DHT22;400;53.550;9.932;2024-03-17T11:26:07;10.10;1.00
837;DHT22;400;53.550;9.932;2024-03-17T11:28:51;10.10;1.00
837;DHT22;400;53.550;9.932;2024-03-17T11:31:36;10.20;1.00
837;DHT22;400;53.550;9.932;2024-03-17T11:34:34;10.10;1.00
837;DHT22;400;53.550;9.932;2024-03-17T11:37:09;10.20;1.00
837;DHT22;400;53.550;9.932;2024-03-17T11:39:57;10.20;1.00
837;DHT22;400;53.550;9.932;2024-03-17T11:42:29;10.30;1.00
837;DHT22;400;53.550;9.932;2024-03-17T11:45:03;10.30;1.00
837;DHT22;400;53.550;9.932;2024-03-17T11:47:37;10.40;1.00
837;DHT22;400;53.550;9.932;2024-03-17T11:50:07;10.40;1.00
837;DHT22;400;53.550;9.932;2024-03-17T11:52:41;10.40;1.00
837;DHT22;400;53.550;9.932;2024-03-17T11:55:19;10.50;1.00
837;DHT22;400;53.550;9.932;2024-03-17T11:57:56;10.50;1.00
837;DHT22;400;53.550;9.932;2024-03-17T12:00:27;10.50;1.00
837;DHT22;400;53.550;9.932;2024-03-17T12:02:53;10.60;1.00
837;DHT22;400;53.550;9.932;2024-03-17T12:05:22;10.60;1.00
837;DHT22;400;53.550;9.932;2024-03-17T12:07:51;10.70;1.00
837;DHT22;400;53.550;9.932;2024-03-17T12:10:20;10.70;1.00
837;DHT22;400;53.550;9.932;2024-03-17T12:12:48;10.60;1.00
837;DHT22;400;53.550;9.932;2024-03-17T12:15:18;10.70;1.00
837;DHT22;400;53.550;9.932;2024-03-17T12:17:55;10.70;1.00
837;DHT22;400;53.550;9.932;2024-03-17T12:20:24;10.70;1.00
837;DHT22;400;53.550;9.932;2024-03-17T12:22:51;10.80;1.00
837;DHT22;400;53.550;9.932;2024-03-17T12:25:20;10.80;1.00
837;DHT22;400;53.550;9.932;2024-03-17T12:27:50;10.80;1.00
837;DHT22;400;53.550;9.932;2024-03-17T12:30:18;10.80;1.00
837;DHT22;400;53.550;9.932;2024-03-17T12:32:56;10.70;1.00
837;DHT22;400;53.550;9.932;2024-03-17T12:35:28;10.80;1.00
837;DHT22;400;53.550;9.932;2024-03-17T12:38:01;10.90;1.00
837;DHT22;400;53.550;9.932;2024-03-17T12:40:27;10.90;1.00
837;DHT22;400;53.550;9.932;2024-03-17T12:43:00;10.90;1.00
837;DHT22;400;53.550;9.932;2024-03-17T12:45:33;10.90;1.00
837;DHT22;400;53.550;9.932;2024-03-17T12:48:14;11.00;1.00
837;DHT22;400;53.550;9.932;2024-03-17T12:50:49;11.00;1.00
837;DHT22;400;53.550;9.932;2024-03-17T12:53:17;11.10;1.00
837;DHT22;400;53.550;9.932;2024-03-17T12:55:53;11.10;1.00
837;DHT22;400;53.550;9.932;2024-03-17T12:58:39;11.10;1.00
837;DHT22;400;53.550;9.932;2024-03-17T13:01:26;11.20;1.00
837;DHT22;400;53.550;9.932;2024-03-17T13:03:53;11.20;1.00
837;DHT22;400;53.550;9.932;2024-03-17T13:06:24;11.20;1.00
837;DHT22;400;53.550;9.932;2024-03-17T13:08:51;11.20;1.00
837;DHT22;400;53.550;9.932;2024-03-17T13:11:19;11.20;1.00
837;DHT22;400;53.550;9.932;2024-03-17T13:13:48;11.20;1.00
837;DHT22;400;53.550;9.932;2024-03-17T13:16:17;11.20;1.00
837;DHT22;400;53.550;9.932;2024-03-17T13:18:44;11.30;1.00
837;DHT22;400;53.550;9.932;2024-03-17T13:21:13;11.30;1.00
837;DHT22;400;53.550;9.932;2024-03-17T13:23:41;11.30;1.00
837;DHT22;400;53.550;9.932;2024-03-17T13:26:10;11.30;1.00
837;DHT22;400;53.550;9.932;2024-03-17T13:28:41;11.40;1.00
837;DHT22;400;53.550;9.932;2024-03-17T13:31:10;11.40;1.00
837;DHT22;400;53.550;9.932;2024-03-17T13:33:40;11.50;1.00
837;DHT22;400;53.550;9.932;2024-03-17T13:36:10;11.50;1.00
837;DHT22;400;53.550;9.932;2024-03-17T13:38:38;11.50;1.00
837;DHT22;400;53.550;9.932;2024-03-17T13:41:07;11.50;1.00
837;DHT22;400;53.550;9.932;2024-03-17T13:43:36;11.50;1.00
837;DHT22;400;53.550;9.932;2024-03-17T13:46:03;11.50;1.00
837;DHT22;400;53.550;9.932;2024-03-17T13:48:32;11.50;1.00
837;DHT22;400;53.550;9.932;2024-03-17T13:51:02;11.40;1.00
837;DHT22;400;53.550;9.932;2024-03-17T13:53:37;11.40;1.00
837;DHT22;400;53.550;9.932;2024-03-17T13:56:07;11.40;1.00
837;DHT22;400;53.550;9.932;2024-03-17T13:58:35;11.40;1.00
837;DHT22;400;53.550;9.932;2024-03-17T14:01:04;11.40;1.00
837;DHT22;400;53.550;9.932;2024-03-17T14:03:37;11.40;1.00
837;DHT22;400;53.550;9.932;2024-03-17T14:06:11;11.40;1.00
837;DHT22;400;53.550;9.932;2024-03-17T14:08:45;11.50;1.00
837;DHT22;400;53.550;9.932;2024-03-17T14:11:19;11.50;1.00
837;DHT22;400;53.550;9.932;2024-03-17T14:13:47;11.50;1.00
837;DHT22;400;53.550;9.932;2024-03-17T14:16:14;11.50;1.00
837;DHT22;400;53.550;9.932;2024-03-17T14:28:48;11.60;1.00
837;DHT22;400;53.550;9.932;2024-03-17T14:31:17;11.70;1.00
837;DHT22;400;53.550;9.932;2024-03-17T14:33:44;11.70;1.00
837;DHT22;400;53.550;9.932;2024-03-17T14:36:14;11.70;1.00
837;DHT22;400;53.550;9.932;2024-03-17T14:38:41;11.80;1.00
837;DHT22;400;53.550;9.932;2024-03-17T14:41:09;11.80;1.00
837;DHT22;400;53.550;9.932;2024-03-17T14:43:37;11.80;1.00
837;DHT22;400;53.550;9.932;2024-03-17T14:46:06;11.80;1.00
837;DHT22;400;53.550;9.932;2024-03-17T14:48:36;11.90;1.00
837;DHT22;400;53.550;9.932;2024-03-17T14:51:03;11.90;1.00
837;DHT22;400;53.550;9.932;2024-03-17T14:53:30;12.00;1.00
837;DHT22;400;53.550;9.932;2024-03-17T14:55:57;12.00;1.00
837;DHT22;400;53.550;9.932;2024-03-17T14:58:24;12.00;1.00
837;DHT22;400;53.550;9.932;2024-03-17T15:00:51;12.00;1.00
837;DHT22;400;53.550;9.932;2024-03-17T15:03:23;12.00;1.00
837;DHT22;400;53.550;9.932;2024-03-17T15:05:55;12.00;1.00
837;DHT22;400;53.550;9.932;2024-03-17T15:08:26;12.00;1.00
837;DHT22;400;53.550;9.932;2024-03-17T15:10:57;12.00;1.00
837;DHT22;400;53.550;9.932;2024-03-17T15:13:25;12.00;1.00
837;DHT22;400;53.550;9.932;2024-03-17T15:15:53;12.00;1.00
837;DHT22;400;53.550;9.932;2024-03-17T15:18:25;12.10;1.00
837;DHT22;400;53.550;9.932;2024-03-17T15:20:54;12.10;1.00
837;DHT22;400;53.550;9.932;2024-03-17T15:23:24;12.10;1.00
837;DHT22;400;53.550;9.932;2024-03-17T15:26:02;12.20;1.00
837;DHT22;400;53.550;9.932;2024-03-17T15:28:55;12.20;1.00
837;DHT22;400;53.550;9.932;2024-03-17T15:31:23;12.20;1.00
837;DHT22;400;53.550;9.932;2024-03-17T15:33:51;12.20;1.00
837;DHT22;400;53.550;9.932;2024-03-17T15:36:22;12.20;1.00
837;DHT22;400;53.550;9.932;2024-03-17T15:38:50;12.20;1.00
837;DHT22;400;53.550;9.932;2024-03-17T15:41:21;12.20;1.00
837;DHT22;400;53.550;9.932;2024-03-17T15:43:54;12.10;1.00
837;DHT22;400;53.550;9.932;2024-03-17T15:46:29;12.10;1.00
837;DHT22;400;53.550;9.932;2024-03-17T15:49:04;12.10;1.00
837;DHT22;400;53.550;9.932;2024-03-17T15:51:34;12.10;1.00
837;DHT22;400;53.550;9.932;2024-03-17T15:54:02;12.10;1.00
837;DHT22;400;53.550;9.932;2024-03-17T15:56:32;12.10;1.00
837;DHT22;400;53.550;9.932;2024-03-17T15:58:59;12.00;1.00
837;DHT22;400;53.550;9.932;2024-03-17T16:01:27;11.90;1.00
837;DHT22;400;53.550;9.932;2024-03-17T16:03:55;11.80;1.00
837;DHT22;400;53.550;9.932;2024-03-17T16:06:24;11.80;1.00
837;DHT22;400;53.550;9.932;2024-03-17T16:08:52;11.70;1.00
837;DHT22;400;53.550;9.932;2024-03-17T16:11:26;11.70;1.00
837;DHT22;400;53.550;9.932;2024-03-17T16:13:59;11.70;1.00
837;DHT22;400;53.550;9.932;2024-03-17T16:16:27;11.70;1.00
837;DHT22;400;53.550;9.932;2024-03-17T16:18:56;11.70;1.00
837;DHT22;400;53.550;9.932;2024-03-17T16:21:27;11.70;1.00
837;DHT22;400;53.550;9.932;2024-03-17T16:23:58;11.70;1.00
837;DHT22;400;53.550;9.932;2024-03-17T16:26:27;11.70;1.00
837;DHT22;400;53.550;9.932;2024-03-17T16:28:57;11.70;1.00
837;DHT22;400;53.550;9.932;2024-03-17T16:31:34;11.60;1.00
837;DHT22;400;53.550;9.932;2024-03-17T16:34:01;11.60;1.00
837;DHT22;400;53.550;9.932;2024-03-17T16:36:32;11.60;1.00
837;DHT22;400;53.550;9.932;2024-03-17T16:39:00;11.50;1.00
837;DHT22;400;53.550;9.932;2024-03-17T16:41:33;11.60;1.00
837;DHT22;400;53.550;9.932;2024-03-17T16:44:13;11.50;1.00
837;DHT22;400;53.550;9.932;2024-03-17T16:47:22;11.50;1.00
837;DHT22;400;53.550;9.932;2024-03-17T16:49:58;11.50;1.00
837;DHT22;400;53.550;9.932;2024-03-17T16:52:32;11.40;1.00
837;DHT22;400;53.550;9.932;2024-03-17T16:55:01;11.40;1.00
837;DHT22;400;53.550;9.932;2024-03-17T16:57:31;11.40;1.00
837;DHT22;400;53.550;9.932;2024-03-17T16:59:58;11.30;1.00
837;DHT22;400;53.550;9.932;2024-03-17T17:02:25;11.30;1.00
837;DHT22;400;53.550;9.932;2024-03-17T17:04:55;11.30;1.00
837;DHT22;400;53.550;9.932;2024-03-17T17:07:22;11.30;1.00
837;DHT22;400;53.550;9.932;2024-03-17T17:09:51;11.30;1.00
837;DHT22;400;53.550;9.932;2024-03-17T17:12:19;11.20;1.00
837;DHT22;400;53.550;9.932;2024-03-17T17:14:46;11.10;1.00
837;DHT22;400;53.550;9.932;2024-03-17T17:17:13;11.10;1.00
837;DHT22;400;53.550;9.932;2024-03-17T17:19:40;11.10;1.00
837;DHT22;400;53.550;9.932;2024-03-17T17:22:10;11.00;1.00
837;DHT22;400;53.550;9.932;2024-03-17T17:24:48;11.00;1.00
837;DHT22;400;53.550;9.932;2024-03-17T17:27:16;11.00;1.00
837;DHT22;400;53.550;9.932;2024-03-17T17:29:44;11.00;1.00
837;DHT22;400;53.550;9.932;2024-03-17T17:32:11;10.90;1.00